createdAt,value
2022-07-25T00:00:10.929Z,24.27
2022-07-25T00:01:13.045Z,24.27
2022-07-25T00:02:16.961Z,24.26
2022-07-25T00:03:20.385Z,24.25
2022-07-25T00:04:24.107Z,24.24
2022-07-25T00:05:26.121Z,24.25
2022-07-25T00:06:29.136Z,24.23
2022-07-25T00:07:31.126Z,24.23
2022-07-25T00:08:34.239Z,24.22
2022-07-25T00:09:36.287Z,24.21
2022-07-25T00:10:39.205Z,24.22
2022-07-25T00:11:41.502Z,24.21
2022-07-25T00:12:44.483Z,24.20
2022-07-25T00:13:47.151Z,24.20
2022-07-25T00:14:50.117Z,24.20
2022-07-25T00:15:52.143Z,24.19
2022-07-25T00:16:55.158Z,24.18
2022-07-25T00:17:57.092Z,24.19
2022-07-25T00:19:01.408Z,24.18
2022-07-25T00:20:04.656Z,24.18
2022-07-25T00:21:07.795Z,24.18
2022-07-25T00:22:09.990Z,24.16
2022-07-25T00:23:13.152Z,24.17
2022-07-25T00:24:15.161Z,24.16
2022-07-25T00:25:18.068Z,24.16
2022-07-25T00:26:20.265Z,24.15
2022-07-25T00:27:23.202Z,24.14
2022-07-25T00:28:25.366Z,24.14
2022-07-25T00:29:28.316Z,24.14
2022-07-25T00:30:30.318Z,24.13
2022-07-25T00:31:33.459Z,24.11
2022-07-25T00:32:35.436Z,24.11
2022-07-25T00:33:40.138Z,24.08
2022-07-25T00:34:43.472Z,24.10
2022-07-25T00:35:46.696Z,24.07
2022-07-25T00:36:48.718Z,24.08
2022-07-25T00:37:51.627Z,24.07
2022-07-25T00:38:53.681Z,24.06
2022-07-25T00:39:56.684Z,24.04
2022-07-25T00:40:58.679Z,24.02
2022-07-25T00:42:01.776Z,24.03
2022-07-25T00:43:04.204Z,24.02
2022-07-25T00:44:07.645Z,24.00
2022-07-25T00:45:10.952Z,24.01
2022-07-25T00:46:14.560Z,23.99
2022-07-25T00:47:22.146Z,23.99
2022-07-25T00:48:24.281Z,24.00
2022-07-25T00:49:27.484Z,23.98
2022-07-25T00:50:31.103Z,23.98
2022-07-25T00:51:34.802Z,23.97
2022-07-25T00:52:36.900Z,23.96
2022-07-25T00:53:40.879Z,23.96
2022-07-25T00:54:43.094Z,23.95
2022-07-25T00:55:48.686Z,23.93
2022-07-25T00:56:51.560Z,23.93
2022-07-25T00:57:54.510Z,23.91
2022-07-25T00:58:56.765Z,23.91
2022-07-25T00:59:59.883Z,23.89
2022-07-25T01:01:02.713Z,23.89
2022-07-25T01:02:05.821Z,23.87
2022-07-25T01:03:08.035Z,23.87
2022-07-25T01:04:11.027Z,23.84
2022-07-25T01:05:13.191Z,23.84
2022-07-25T01:06:17.772Z,23.81
2022-07-25T01:07:19.986Z,23.82
2022-07-25T01:08:23.624Z,23.80
2022-07-25T01:09:26.497Z,23.79
2022-07-25T01:10:30.894Z,23.77
2022-07-25T01:11:33.296Z,23.78
2022-07-25T01:12:48.188Z,23.77
2022-07-25T01:13:51.280Z,23.78
2022-07-25T01:14:53.230Z,23.77
2022-07-25T01:15:56.370Z,23.78
2022-07-25T01:16:58.660Z,23.77
2022-07-25T01:18:01.918Z,23.77
2022-07-25T01:19:04.064Z,23.75
2022-07-25T01:20:08.052Z,23.75
2022-07-25T01:21:11.532Z,23.74
2022-07-25T01:22:14.601Z,23.72
2022-07-25T01:23:16.554Z,23.73
2022-07-25T01:24:19.492Z,23.72
2022-07-25T01:25:22.173Z,23.71
2022-07-25T01:26:25.221Z,23.70
2022-07-25T01:27:27.121Z,23.70
2022-07-25T01:28:30.160Z,23.70
2022-07-25T01:29:33.226Z,23.69
2022-07-25T01:30:38.151Z,23.68
2022-07-25T01:31:41.315Z,23.67
2022-07-25T01:32:44.419Z,23.67
2022-07-25T01:33:47.395Z,23.66
2022-07-25T01:34:49.375Z,23.66
2022-07-25T01:35:52.420Z,23.66
2022-07-25T01:36:55.784Z,23.65
2022-07-25T01:37:58.788Z,23.65
2022-07-25T01:39:00.826Z,23.64
2022-07-25T01:40:04.332Z,23.62
2022-07-25T01:41:06.538Z,23.61
2022-07-25T01:42:09.513Z,23.59
2022-07-25T01:43:11.611Z,23.57
2022-07-25T01:44:14.577Z,23.55
2022-07-25T01:45:16.574Z,23.53
2022-07-25T01:46:19.622Z,23.54
2022-07-25T01:47:21.630Z,23.54
2022-07-25T01:48:24.799Z,23.53
2022-07-25T01:49:26.865Z,23.52
2022-07-25T01:50:29.811Z,23.51
2022-07-25T01:51:31.966Z,23.50
2022-07-25T01:52:37.172Z,23.48
2022-07-25T01:53:39.214Z,23.47
2022-07-25T01:54:43.453Z,23.45
2022-07-25T01:55:46.343Z,23.45
2022-07-25T01:56:50.661Z,23.44
2022-07-25T01:57:52.723Z,23.43
2022-07-25T01:58:55.726Z,23.43
2022-07-25T01:59:57.775Z,23.43
2022-07-25T02:01:00.869Z,23.43
2022-07-25T02:02:02.979Z,23.44
2022-07-25T02:03:23.553Z,23.43
2022-07-25T02:04:26.565Z,23.43
2022-07-25T02:05:28.525Z,23.41
2022-07-25T02:06:31.621Z,23.41
2022-07-25T02:07:36.158Z,23.41
2022-07-25T02:08:38.207Z,23.41
2022-07-25T02:09:42.016Z,23.40
2022-07-25T02:10:44.020Z,23.39
2022-07-25T02:11:47.121Z,23.39
2022-07-25T02:12:49.065Z,23.37
2022-07-25T02:13:52.436Z,23.36
2022-07-25T02:14:54.407Z,23.35
2022-07-25T02:15:57.471Z,23.35
2022-07-25T02:16:59.633Z,23.34
2022-07-25T02:18:03.275Z,23.33
2022-07-25T02:19:05.459Z,23.32
2022-07-25T02:20:10.100Z,23.30
2022-07-25T02:21:14.276Z,23.27
2022-07-25T02:22:16.784Z,23.24
2022-07-25T02:23:21.111Z,23.22
2022-07-25T02:24:23.133Z,23.21
2022-07-25T02:25:26.316Z,23.21
2022-07-25T02:26:28.317Z,23.19
2022-07-25T02:27:31.349Z,23.18
2022-07-25T02:28:33.422Z,23.19
2022-07-25T02:29:36.690Z,23.19
2022-07-25T02:30:38.935Z,23.18
2022-07-25T02:31:42.091Z,23.16
2022-07-25T02:32:44.039Z,23.17
2022-07-25T02:33:47.197Z,23.17
2022-07-25T02:34:49.198Z,23.18
2022-07-25T02:35:52.186Z,23.19
2022-07-25T02:36:54.258Z,23.18
2022-07-25T02:37:57.299Z,23.16
2022-07-25T02:39:02.154Z,23.15
2022-07-25T02:40:05.833Z,23.16
2022-07-25T02:41:08.146Z,23.16
2022-07-25T02:42:11.195Z,23.15
2022-07-25T02:43:13.332Z,23.16
2022-07-25T02:44:18.590Z,23.16
2022-07-25T02:45:20.739Z,23.13
2022-07-25T02:46:23.819Z,23.11
2022-07-25T02:47:25.879Z,23.09
2022-07-25T02:48:28.844Z,23.09
2022-07-25T02:49:30.821Z,23.08
2022-07-25T02:50:33.979Z,23.09
2022-07-25T02:51:35.851Z,23.06
2022-07-25T02:52:38.838Z,23.06
2022-07-25T02:53:56.585Z,23.06
2022-07-25T02:55:06.113Z,23.06
2022-07-25T02:56:11.452Z,23.04
2022-07-25T02:57:17.211Z,23.04
2022-07-25T02:58:19.158Z,23.03
2022-07-25T02:59:22.088Z,23.01
2022-07-25T03:00:24.406Z,22.98
2022-07-25T03:01:27.761Z,22.96
2022-07-25T03:02:29.788Z,22.95
2022-07-25T03:03:32.915Z,22.95
2022-07-25T03:04:34.958Z,22.95
2022-07-25T03:05:38.078Z,22.95
2022-07-25T03:06:40.078Z,22.95
2022-07-25T03:07:45.138Z,22.95
2022-07-25T03:08:47.097Z,22.96
2022-07-25T03:09:50.214Z,22.96
2022-07-25T03:10:53.515Z,22.96
2022-07-25T03:11:56.703Z,22.95
2022-07-25T03:12:58.659Z,22.96
2022-07-25T03:14:01.923Z,22.95
2022-07-25T03:15:06.277Z,22.94
2022-07-25T03:16:09.811Z,22.93
2022-07-25T03:17:11.960Z,22.93
2022-07-25T03:18:14.887Z,22.91
2022-07-25T03:19:17.207Z,22.91
2022-07-25T03:20:20.209Z,22.91
2022-07-25T03:21:22.184Z,22.90
2022-07-25T03:22:25.800Z,22.90
2022-07-25T03:23:28.401Z,22.88
2022-07-25T03:24:31.546Z,22.87
2022-07-25T03:25:33.693Z,22.86
2022-07-25T03:26:38.204Z,22.86
2022-07-25T03:27:41.185Z,22.86
2022-07-25T03:28:43.118Z,22.83
2022-07-25T03:29:46.652Z,22.82
2022-07-25T03:30:48.679Z,22.82
2022-07-25T03:31:51.698Z,22.81
2022-07-25T03:32:55.079Z,22.81
2022-07-25T03:33:58.042Z,22.81
2022-07-25T03:35:00.031Z,22.79
2022-07-25T03:36:03.062Z,22.79
2022-07-25T03:37:06.813Z,22.79
2022-07-25T03:38:08.742Z,22.80
2022-07-25T03:39:11.697Z,22.79
2022-07-25T03:40:14.507Z,22.79
2022-07-25T03:41:19.228Z,22.77
2022-07-25T03:42:26.730Z,22.77
2022-07-25T03:43:31.571Z,22.76
2022-07-25T03:44:33.495Z,22.75
2022-07-25T03:45:36.449Z,22.75
2022-07-25T03:46:39.520Z,22.73
2022-07-25T03:47:41.455Z,22.72
2022-07-25T03:48:44.514Z,22.71
2022-07-25T03:49:47.536Z,22.70
2022-07-25T03:50:49.805Z,22.70
2022-07-25T03:51:52.817Z,22.70
2022-07-25T03:52:55.540Z,22.69
2022-07-25T03:54:05.264Z,22.68
2022-07-25T03:55:10.809Z,22.68
2022-07-25T03:56:12.772Z,22.69
2022-07-25T03:57:15.707Z,22.68
2022-07-25T03:58:19.037Z,22.68
2022-07-25T03:59:22.762Z,22.68
2022-07-25T04:00:24.861Z,22.66
2022-07-25T04:01:28.992Z,22.65
2022-07-25T04:02:31.073Z,22.65
2022-07-25T04:03:34.483Z,22.66
2022-07-25T04:04:36.432Z,22.63
2022-07-25T04:05:43.041Z,22.63
2022-07-25T04:06:50.209Z,22.63
2022-07-25T04:07:53.140Z,22.62
2022-07-25T04:08:56.152Z,22.62
2022-07-25T04:09:59.336Z,22.61
2022-07-25T04:11:01.296Z,22.61
2022-07-25T04:12:04.610Z,22.61
2022-07-25T04:13:06.639Z,22.60
2022-07-25T04:14:11.976Z,22.58
2022-07-25T04:15:14.088Z,22.58
2022-07-25T04:16:22.144Z,22.57
2022-07-25T04:17:25.760Z,22.56
2022-07-25T04:18:28.997Z,22.56
2022-07-25T04:19:31.409Z,22.55
2022-07-25T04:20:37.637Z,22.54
2022-07-25T04:21:39.834Z,22.54
2022-07-25T04:22:46.750Z,22.53
2022-07-25T04:23:49.741Z,22.53
2022-07-25T04:24:52.742Z,22.51
2022-07-25T04:25:54.806Z,22.49
2022-07-25T04:26:57.880Z,22.47
2022-07-25T04:27:59.851Z,22.47
2022-07-25T04:29:03.712Z,22.48
2022-07-25T04:30:08.887Z,22.47
2022-07-25T04:31:12.023Z,22.46
2022-07-25T04:32:21.411Z,22.46
2022-07-25T04:33:25.946Z,22.46
2022-07-25T04:34:28.947Z,22.46
2022-07-25T04:35:31.049Z,22.47
2022-07-25T04:36:34.235Z,22.46
2022-07-25T04:37:37.408Z,22.46
2022-07-25T04:38:40.344Z,22.46
2022-07-25T04:39:42.290Z,22.48
2022-07-25T04:40:45.460Z,22.48
2022-07-25T04:41:47.839Z,22.49
2022-07-25T04:42:50.831Z,22.49
2022-07-25T04:43:53.099Z,22.50
2022-07-25T04:44:56.101Z,22.50
2022-07-25T04:45:59.840Z,22.51
2022-07-25T04:47:02.811Z,22.52
2022-07-25T04:48:05.590Z,22.53
2022-07-25T04:49:08.600Z,22.53
2022-07-25T04:50:10.665Z,22.54
2022-07-25T04:51:13.511Z,22.55
2022-07-25T04:52:15.469Z,22.56
2022-07-25T04:53:18.470Z,22.58
2022-07-25T04:54:20.512Z,22.58
2022-07-25T04:55:23.675Z,22.59
2022-07-25T04:56:25.620Z,22.59
2022-07-25T04:57:28.618Z,22.60
2022-07-25T04:58:31.560Z,22.63
2022-07-25T04:59:34.539Z,22.65
2022-07-25T05:00:36.752Z,22.65
2022-07-25T05:01:41.162Z,22.67
2022-07-25T05:02:43.645Z,22.68
2022-07-25T05:03:49.893Z,22.70
2022-07-25T05:04:53.264Z,22.73
2022-07-25T05:05:56.353Z,22.74
2022-07-25T05:06:59.318Z,22.78
2022-07-25T05:08:02.228Z,22.80
2022-07-25T05:09:04.184Z,22.85
2022-07-25T05:10:07.922Z,22.89
2022-07-25T05:11:11.019Z,22.93
2022-07-25T05:12:12.934Z,22.98
2022-07-25T05:13:16.303Z,23.02
2022-07-25T05:14:18.262Z,23.08
2022-07-25T05:15:24.128Z,23.14
2022-07-25T05:16:26.163Z,23.18
2022-07-25T05:17:30.584Z,23.23
2022-07-25T05:18:33.980Z,23.29
2022-07-25T05:19:37.180Z,23.34
2022-07-25T05:20:41.209Z,23.39
2022-07-25T05:21:43.190Z,23.44
2022-07-25T05:22:46.118Z,23.50
2022-07-25T05:23:49.078Z,23.54
2022-07-25T05:24:51.142Z,23.60
2022-07-25T05:25:54.020Z,23.64
2022-07-25T05:26:56.110Z,23.67
2022-07-25T05:27:59.125Z,23.71
2022-07-25T05:29:01.049Z,23.74
2022-07-25T05:30:05.810Z,23.78
2022-07-25T05:31:07.773Z,23.83
2022-07-25T05:32:11.016Z,23.87
2022-07-25T05:33:15.590Z,23.89
2022-07-25T05:34:17.802Z,23.93
2022-07-25T05:35:20.769Z,23.96
2022-07-25T05:36:22.804Z,23.99
2022-07-25T05:37:26.037Z,24.03
2022-07-25T05:38:29.081Z,24.06
2022-07-25T05:39:32.041Z,24.08
2022-07-25T05:40:35.101Z,24.11
2022-07-25T05:41:37.008Z,24.14
2022-07-25T05:42:40.247Z,24.17
2022-07-25T05:43:46.150Z,24.19
2022-07-25T05:44:48.105Z,24.22
2022-07-25T05:45:51.311Z,24.24
2022-07-25T05:46:53.308Z,24.27
2022-07-25T05:47:56.321Z,24.27
2022-07-25T05:48:59.806Z,24.29
2022-07-25T05:50:02.948Z,24.32
2022-07-25T05:51:04.926Z,24.34
2022-07-25T05:52:12.581Z,24.37
2022-07-25T05:53:16.109Z,24.41
2022-07-25T05:54:18.197Z,24.44
2022-07-25T05:55:21.152Z,24.47
2022-07-25T05:56:23.053Z,24.49
2022-07-25T05:57:26.105Z,24.51
2022-07-25T05:58:30.023Z,24.53
2022-07-25T05:59:33.313Z,24.56
2022-07-25T06:00:36.577Z,24.57
2022-07-25T06:01:38.602Z,24.58
2022-07-25T06:02:41.759Z,24.60
2022-07-25T06:03:44.041Z,24.64
2022-07-25T06:04:48.335Z,24.65
2022-07-25T06:05:50.363Z,24.68
2022-07-25T06:06:53.344Z,24.69
2022-07-25T06:07:55.464Z,24.73
2022-07-25T06:08:58.582Z,24.74
2022-07-25T06:10:01.932Z,24.77
2022-07-25T06:11:05.975Z,24.79
2022-07-25T06:12:10.160Z,24.82
2022-07-25T06:13:14.522Z,24.83
2022-07-25T06:14:16.594Z,24.82
2022-07-25T06:15:22.821Z,24.84
2022-07-25T06:16:28.811Z,24.85
2022-07-25T06:17:32.724Z,24.87
2022-07-25T06:18:35.143Z,24.90
2022-07-25T06:19:38.333Z,24.92
2022-07-25T06:20:41.874Z,24.95
2022-07-25T06:21:44.988Z,24.96
2022-07-25T06:22:46.977Z,24.98
2022-07-25T06:23:49.985Z,25.00
2022-07-25T06:24:52.052Z,25.01
2022-07-25T06:25:55.081Z,25.01
2022-07-25T06:26:58.363Z,25.02
2022-07-25T06:28:01.091Z,25.04
2022-07-25T06:29:04.150Z,25.07
2022-07-25T06:30:18.790Z,25.08
2022-07-25T06:31:23.657Z,25.09
2022-07-25T06:32:25.662Z,25.11
2022-07-25T06:33:28.734Z,25.13
2022-07-25T06:34:31.768Z,25.14
2022-07-25T06:35:34.704Z,25.17
2022-07-25T06:36:39.230Z,25.19
2022-07-25T06:37:41.402Z,25.22
2022-07-25T06:38:44.332Z,25.24
2022-07-25T06:39:46.395Z,25.24
2022-07-25T06:40:49.561Z,25.26
2022-07-25T06:41:51.770Z,25.26
2022-07-25T06:42:55.047Z,25.27
2022-07-25T06:43:57.044Z,25.29
2022-07-25T06:45:00.129Z,25.30
2022-07-25T06:46:02.776Z,25.32
2022-07-25T06:47:10.579Z,25.35
2022-07-25T06:48:12.676Z,25.38
2022-07-25T06:49:15.892Z,25.38
2022-07-25T06:50:21.154Z,25.40
2022-07-25T06:51:24.089Z,25.41
2022-07-25T06:52:28.766Z,25.42
2022-07-25T06:53:31.717Z,25.44
2022-07-25T06:54:34.995Z,25.44
2022-07-25T06:55:38.095Z,25.45
2022-07-25T06:56:40.033Z,25.48
2022-07-25T06:57:44.034Z,25.49
2022-07-25T06:58:46.954Z,25.49
2022-07-25T06:59:49.125Z,25.53
2022-07-25T07:00:52.462Z,25.54
2022-07-25T07:01:54.605Z,25.54
2022-07-25T07:03:01.293Z,25.56
2022-07-25T07:04:05.903Z,25.56
2022-07-25T07:05:09.071Z,25.57
2022-07-25T07:06:12.068Z,25.57
2022-07-25T07:07:14.082Z,25.59
2022-07-25T07:08:18.714Z,25.60
2022-07-25T07:09:20.679Z,25.61
2022-07-25T07:10:24.396Z,25.62
2022-07-25T07:11:26.332Z,25.63
2022-07-25T07:12:29.344Z,25.64
2022-07-25T07:13:32.581Z,25.64
2022-07-25T07:14:34.566Z,25.65
2022-07-25T07:15:38.149Z,25.65
2022-07-25T07:16:41.389Z,25.67
2022-07-25T07:17:44.670Z,25.69
2022-07-25T07:18:49.563Z,25.70
2022-07-25T07:19:51.852Z,25.72
2022-07-25T07:20:55.563Z,25.74
2022-07-25T07:21:57.818Z,25.75
2022-07-25T07:23:02.006Z,25.75
2022-07-25T07:24:09.402Z,25.78
2022-07-25T07:25:28.564Z,25.79
2022-07-25T07:26:30.780Z,25.79
2022-07-25T07:27:33.913Z,25.79
2022-07-25T07:28:36.824Z,25.79
2022-07-25T07:29:38.939Z,25.81
2022-07-25T07:31:14.655Z,25.81
2022-07-25T07:32:06.587Z,25.82
2022-07-25T07:33:08.725Z,25.83
2022-07-25T07:34:16.242Z,25.83
2022-07-25T07:35:19.321Z,25.84
2022-07-25T07:36:22.784Z,25.84
2022-07-25T07:37:24.825Z,25.84
2022-07-25T07:38:28.318Z,25.85
2022-07-25T07:39:32.626Z,25.87
2022-07-25T07:40:35.738Z,25.88
2022-07-25T07:41:37.777Z,25.88
2022-07-25T07:42:42.170Z,25.91
2022-07-25T07:43:45.538Z,25.93
2022-07-25T07:44:47.753Z,25.94
2022-07-25T07:45:50.875Z,25.97
2022-07-25T07:46:53.962Z,25.99
2022-07-25T07:47:56.409Z,26.01
2022-07-25T07:48:59.412Z,26.00
2022-07-25T07:50:01.549Z,25.99
2022-07-25T07:51:06.019Z,26.02
2022-07-25T07:52:08.035Z,26.03
2022-07-25T07:53:11.117Z,26.04
2022-07-25T07:54:31.925Z,26.03
2022-07-25T07:55:44.578Z,26.06
2022-07-25T07:56:46.636Z,26.08
2022-07-25T07:57:49.694Z,26.10
2022-07-25T07:58:51.821Z,26.12
2022-07-25T07:59:54.797Z,26.13
2022-07-25T08:00:59.567Z,26.15
2022-07-25T08:02:02.042Z,26.15
2022-07-25T08:03:06.579Z,26.17
2022-07-25T08:04:08.668Z,26.19
2022-07-25T08:05:11.647Z,26.21
2022-07-25T08:06:14.655Z,26.22
2022-07-25T08:07:16.843Z,26.24
2022-07-25T08:08:20.288Z,26.27
2022-07-25T08:09:22.373Z,26.29
2022-07-25T08:10:27.568Z,26.29
2022-07-25T08:11:31.979Z,26.30
2022-07-25T08:12:40.279Z,26.31
2022-07-25T08:13:43.271Z,26.34
2022-07-25T08:14:45.336Z,26.36
2022-07-25T08:15:51.254Z,26.37
2022-07-25T08:16:53.487Z,26.40
2022-07-25T08:17:56.823Z,26.42
2022-07-25T08:19:00.081Z,26.43
2022-07-25T08:20:35.268Z,26.47
2022-07-25T08:21:30.295Z,26.49
2022-07-25T08:22:36.825Z,26.51
2022-07-25T08:23:39.767Z,26.51
2022-07-25T08:24:41.729Z,26.52
2022-07-25T08:25:45.389Z,26.52
2022-07-25T08:26:48.890Z,26.55
2022-07-25T08:27:53.236Z,26.57
2022-07-25T08:29:17.634Z,26.57
2022-07-25T08:30:19.286Z,26.60
2022-07-25T08:31:22.574Z,26.61
2022-07-25T08:32:24.687Z,26.61
2022-07-25T08:33:28.348Z,26.61
2022-07-25T08:34:30.497Z,26.62
2022-07-25T08:35:35.884Z,26.63
2022-07-25T08:36:37.975Z,26.62
2022-07-25T08:37:40.982Z,26.62
2022-07-25T08:38:42.978Z,26.65
2022-07-25T08:39:46.143Z,26.67
2022-07-25T08:40:49.280Z,26.71
2022-07-25T08:41:52.764Z,26.69
2022-07-25T08:42:56.632Z,26.73
2022-07-25T08:43:59.312Z,26.73
2022-07-25T08:45:06.555Z,26.75
2022-07-25T08:46:09.754Z,26.76
2022-07-25T08:47:15.691Z,26.78
2022-07-25T08:48:20.301Z,26.76
2022-07-25T08:49:22.572Z,26.76
2022-07-25T08:50:27.646Z,26.78
2022-07-25T08:51:30.004Z,26.79
2022-07-25T08:52:35.404Z,26.81
2022-07-25T08:53:37.711Z,26.83
2022-07-25T08:54:41.036Z,26.83
2022-07-25T08:55:45.941Z,26.84
2022-07-25T08:56:48.223Z,26.85
2022-07-25T08:57:54.484Z,26.86
2022-07-25T08:58:58.970Z,26.88
2022-07-25T09:00:01.543Z,26.89
2022-07-25T09:01:04.741Z,26.92
2022-07-25T09:02:08.499Z,26.95
2022-07-25T09:03:12.175Z,26.95
2022-07-25T09:04:14.483Z,26.97
2022-07-25T09:05:20.121Z,26.98
2022-07-25T09:06:23.609Z,26.97
2022-07-25T09:07:33.437Z,26.97
2022-07-25T09:08:36.447Z,26.96
2022-07-25T09:09:39.527Z,26.96
2022-07-25T09:10:47.927Z,26.97
2022-07-25T09:11:50.586Z,26.96
2022-07-25T09:12:56.791Z,26.95
2022-07-25T09:14:01.569Z,26.96
2022-07-25T09:15:05.319Z,26.98
2022-07-25T09:16:10.709Z,26.99
2022-07-25T09:17:22.198Z,26.99
2022-07-25T09:18:28.318Z,27.02
2022-07-25T09:19:31.802Z,27.02
2022-07-25T09:20:39.636Z,27.05
2022-07-25T09:21:45.676Z,27.07
2022-07-25T09:22:48.415Z,27.08
2022-07-25T09:23:51.365Z,27.08
2022-07-25T09:24:54.544Z,27.09
2022-07-25T09:26:02.839Z,27.10
2022-07-25T09:27:12.621Z,27.09
2022-07-25T09:28:19.417Z,27.10
2022-07-25T09:29:24.837Z,27.11
2022-07-25T09:30:28.323Z,27.12
2022-07-25T09:31:32.975Z,27.13
2022-07-25T09:32:36.064Z,27.14
2022-07-25T09:33:46.740Z,27.15
2022-07-25T09:34:51.023Z,27.15
2022-07-25T09:35:54.541Z,27.17
2022-07-25T09:36:57.965Z,27.18
2022-07-25T09:38:11.579Z,27.20
2022-07-25T09:39:13.553Z,27.22
2022-07-25T09:40:16.918Z,27.22
2022-07-25T09:41:18.963Z,27.23
2022-07-25T09:42:25.614Z,27.23
2022-07-25T09:43:39.406Z,27.26
2022-07-25T09:44:41.676Z,27.28
2022-07-25T09:45:51.139Z,27.30
2022-07-25T09:46:53.166Z,27.31
2022-07-25T09:47:57.852Z,27.33
2022-07-25T09:49:00.934Z,27.35
2022-07-25T09:50:06.122Z,27.36
2022-07-25T09:51:09.313Z,27.37
2022-07-25T09:52:12.252Z,27.37
2022-07-25T09:53:15.519Z,27.39
2022-07-25T09:54:17.810Z,27.40
2022-07-25T09:55:21.466Z,27.40
2022-07-25T09:56:23.458Z,27.40
2022-07-25T09:57:26.747Z,27.39
2022-07-25T09:58:31.103Z,27.40
2022-07-25T09:59:35.461Z,27.40
2022-07-25T10:00:42.293Z,27.39
2022-07-25T10:01:51.054Z,27.40
2022-07-25T10:03:10.090Z,27.43
2022-07-25T10:04:19.749Z,27.44
2022-07-25T10:05:38.403Z,27.46
2022-07-25T10:06:49.568Z,27.50
2022-07-25T10:07:54.524Z,27.52
2022-07-25T10:08:58.533Z,27.53
2022-07-25T10:10:00.697Z,27.55
2022-07-25T10:11:04.591Z,27.58
2022-07-25T10:12:08.671Z,27.62
2022-07-25T10:13:15.221Z,27.65
2022-07-25T10:14:18.158Z,27.66
2022-07-25T10:15:22.750Z,27.65
2022-07-25T10:16:27.535Z,27.65
2022-07-25T10:17:29.657Z,27.64
2022-07-25T10:18:33.496Z,27.64
2022-07-25T10:19:50.909Z,27.66
2022-07-25T10:20:57.512Z,27.67
2022-07-25T10:21:59.544Z,27.67
2022-07-25T10:23:02.792Z,27.68
2022-07-25T10:24:08.172Z,27.69
2022-07-25T10:25:13.369Z,27.72
2022-07-25T10:26:19.477Z,27.74
2022-07-25T10:27:24.707Z,27.74
2022-07-25T10:28:37.233Z,27.77
2022-07-25T10:29:41.837Z,27.78
2022-07-25T10:30:45.253Z,27.77
2022-07-25T10:31:51.407Z,27.76
2022-07-25T10:32:58.325Z,27.79
2022-07-25T10:34:04.681Z,27.81
2022-07-25T10:35:16.187Z,27.83
2022-07-25T10:36:21.791Z,27.84
2022-07-25T10:37:28.052Z,27.85
2022-07-25T10:38:31.113Z,27.85
2022-07-25T10:39:38.985Z,27.86
2022-07-25T10:40:46.441Z,27.89
2022-07-25T10:41:51.998Z,27.90
2022-07-25T10:42:59.185Z,27.92
2022-07-25T10:44:02.985Z,27.95
2022-07-25T10:45:09.505Z,27.98
2022-07-25T10:46:15.629Z,27.96
2022-07-25T10:47:18.264Z,27.96
2022-07-25T10:48:26.177Z,27.94
2022-07-25T10:49:36.375Z,27.92
2022-07-25T10:50:55.765Z,27.94
2022-07-25T10:52:03.237Z,27.96
2022-07-25T10:53:09.149Z,27.98
2022-07-25T10:54:16.902Z,28.01
2022-07-25T10:55:23.804Z,28.03
2022-07-25T10:56:29.201Z,28.01
2022-07-25T10:57:32.439Z,28.00
2022-07-25T10:58:50.925Z,28.00
2022-07-25T10:59:53.998Z,28.02
2022-07-25T11:00:56.074Z,28.03
2022-07-25T11:02:01.146Z,28.06
2022-07-25T11:03:04.216Z,28.05
2022-07-25T11:04:16.304Z,28.06
2022-07-25T11:05:18.359Z,28.07
2022-07-25T11:06:32.245Z,28.07
2022-07-25T11:07:36.920Z,28.10
2022-07-25T11:08:39.135Z,28.11
2022-07-25T11:09:43.414Z,28.13
2022-07-25T11:10:52.596Z,28.15
2022-07-25T11:11:57.268Z,28.17
2022-07-25T11:12:59.259Z,28.18
2022-07-25T11:14:02.360Z,28.17
2022-07-25T11:15:08.235Z,28.16
2022-07-25T11:16:10.977Z,28.16
2022-07-25T11:17:18.586Z,28.17
2022-07-25T11:18:31.261Z,28.18
2022-07-25T11:19:35.145Z,28.19
2022-07-25T11:20:40.198Z,28.18
2022-07-25T11:21:46.253Z,28.16
2022-07-25T11:22:53.893Z,28.16
2022-07-25T11:23:56.875Z,28.19
2022-07-25T11:25:01.197Z,28.20
2022-07-25T11:26:11.025Z,28.22
2022-07-25T11:27:22.232Z,28.23
2022-07-25T11:28:24.187Z,28.27
2022-07-25T11:29:28.009Z,28.26
2022-07-25T11:30:31.160Z,28.25
2022-07-25T11:31:35.664Z,28.23
2022-07-25T11:32:44.352Z,28.23
2022-07-25T11:33:49.183Z,28.27
2022-07-25T11:34:54.610Z,28.30
2022-07-25T11:35:58.227Z,28.33
2022-07-25T11:37:04.461Z,28.34
2022-07-25T11:38:07.811Z,28.35
2022-07-25T11:39:15.508Z,28.33
2022-07-25T11:40:22.741Z,28.31
2022-07-25T11:41:31.980Z,28.35
2022-07-25T11:42:40.868Z,28.38
2022-07-25T11:43:50.624Z,28.40
2022-07-25T11:44:53.211Z,28.40
2022-07-25T11:46:01.482Z,28.41
2022-07-25T11:47:06.262Z,28.43
2022-07-25T11:48:11.280Z,28.43
2022-07-25T11:49:15.014Z,28.43
2022-07-25T11:50:17.322Z,28.42
2022-07-25T11:51:21.074Z,28.40
2022-07-25T11:52:25.194Z,28.39
2022-07-25T11:53:29.288Z,28.41
2022-07-25T11:54:32.246Z,28.39
2022-07-25T11:55:37.334Z,28.43
2022-07-25T11:56:42.909Z,28.44
2022-07-25T11:57:48.205Z,28.47
2022-07-25T11:58:58.094Z,28.48
2022-07-25T12:00:02.581Z,28.48
2022-07-25T12:01:16.520Z,28.51
2022-07-25T12:02:23.925Z,28.52
2022-07-25T12:03:39.045Z,28.51
2022-07-25T12:04:42.122Z,28.51
2022-07-25T12:05:45.636Z,28.53
2022-07-25T12:06:50.053Z,28.53
2022-07-25T12:07:55.871Z,28.54
2022-07-25T12:08:58.498Z,28.54
2022-07-25T12:10:01.430Z,28.56
2022-07-25T12:11:03.635Z,28.55
2022-07-25T12:12:07.189Z,28.56
2022-07-25T12:13:10.585Z,28.56
2022-07-25T12:14:14.217Z,28.57
2022-07-25T12:15:19.224Z,28.61
2022-07-25T12:16:22.273Z,28.64
2022-07-25T12:17:24.356Z,28.65
2022-07-25T12:18:29.273Z,28.67
2022-07-25T12:19:32.316Z,28.68
2022-07-25T12:20:38.626Z,28.68
2022-07-25T12:21:41.630Z,28.68
2022-07-25T12:22:44.065Z,28.65
2022-07-25T12:23:48.225Z,28.63
2022-07-25T12:24:51.533Z,28.63
2022-07-25T12:25:54.851Z,28.66
2022-07-25T12:26:56.879Z,28.66
2022-07-25T12:28:01.158Z,28.66
2022-07-25T12:29:04.750Z,28.65
2022-07-25T12:30:09.045Z,28.65
2022-07-25T12:31:12.167Z,28.65
2022-07-25T12:32:14.891Z,28.69
2022-07-25T12:33:18.267Z,28.70
2022-07-25T12:34:22.767Z,28.72
2022-07-25T12:35:26.808Z,28.72
2022-07-25T12:36:29.806Z,28.75
2022-07-25T12:37:32.446Z,28.79
2022-07-25T12:38:35.555Z,28.80
2022-07-25T12:39:37.734Z,28.81
2022-07-25T12:40:40.844Z,28.81
2022-07-25T12:41:43.172Z,28.80
2022-07-25T12:42:46.967Z,28.80
2022-07-25T12:43:49.757Z,28.79
2022-07-25T12:44:52.938Z,28.80
2022-07-25T12:45:55.937Z,28.79
2022-07-25T12:46:58.159Z,28.78
2022-07-25T12:48:01.098Z,28.76
2022-07-25T12:49:04.706Z,28.75
2022-07-25T12:50:09.610Z,28.75
2022-07-25T12:51:12.608Z,28.77
2022-07-25T12:52:14.648Z,28.77
2022-07-25T12:53:17.648Z,28.75
2022-07-25T12:54:22.559Z,28.75
2022-07-25T12:55:25.722Z,28.77
2022-07-25T12:56:27.802Z,28.76
2022-07-25T12:57:30.878Z,28.76
2022-07-25T12:58:33.049Z,28.77
2022-07-25T12:59:36.335Z,28.80
2022-07-25T13:00:38.526Z,28.80
2022-07-25T13:01:41.593Z,28.84
2022-07-25T13:02:45.316Z,28.84
2022-07-25T13:03:48.880Z,28.85
2022-07-25T13:04:50.847Z,28.86
2022-07-25T13:05:55.345Z,28.88
2022-07-25T13:06:58.311Z,28.88
2022-07-25T13:08:01.272Z,28.88
2022-07-25T13:09:03.739Z,28.88
2022-07-25T13:10:08.033Z,28.89
2022-07-25T13:11:12.595Z,28.90
2022-07-25T13:12:16.533Z,28.90
2022-07-25T13:13:19.752Z,28.90
2022-07-25T13:14:21.848Z,28.90
2022-07-25T13:15:28.203Z,28.93
2022-07-25T13:16:30.239Z,28.94
2022-07-25T13:17:33.716Z,28.98
2022-07-25T13:18:36.893Z,29.00
2022-07-25T13:19:39.970Z,29.04
2022-07-25T13:20:42.917Z,29.05
2022-07-25T13:21:46.276Z,29.03
2022-07-25T13:22:49.340Z,29.02
2022-07-25T13:23:52.325Z,29.01
2022-07-25T13:24:54.698Z,29.01
2022-07-25T13:25:57.711Z,29.00
2022-07-25T13:26:59.703Z,29.01
2022-07-25T13:28:04.061Z,29.01
2022-07-25T13:29:13.500Z,29.02
2022-07-25T13:30:16.673Z,29.02
2022-07-25T13:31:20.314Z,29.04
2022-07-25T13:32:26.026Z,29.05
2022-07-25T13:33:29.213Z,29.05
2022-07-25T13:34:31.208Z,29.06
2022-07-25T13:35:38.783Z,29.05
2022-07-25T13:36:41.251Z,29.06
2022-07-25T13:37:45.908Z,29.06
2022-07-25T13:38:47.973Z,29.09
2022-07-25T13:39:51.312Z,29.13
2022-07-25T13:40:58.434Z,29.12
2022-07-25T13:42:01.894Z,29.13
2022-07-25T13:43:04.878Z,29.14
2022-07-25T13:44:08.126Z,29.12